sensor_id;sensor_type;location;lat;lon;timestamp;P1;durP1;ratioP1;P2;durP2;ratioP2
72569;SDS011;60594;50.204;8.844;2022-07-23T00:00:00;8.13;;;4.97;;
72569;SDS011;60594;50.204;8.844;2022-07-23T00:02:47;7.55;;;4.55;;
72569;SDS011;60594;50.204;8.844;2022-07-23T00:05:14;7.22;;;4.43;;
72569;SDS011;60594;50.204;8.844;2022-07-23T00:07:43;6.80;;;3.90;;
72569;SDS011;60594;50.204;8.844;2022-07-23T00:10:10;7.97;;;4.10;;
72569;SDS011;60594;50.204;8.844;2022-07-23T00:12:37;7.32;;;4.45;;
72569;SDS011;60594;50.204;8.844;2022-07-23T00:15:04;7.72;;;4.60;;
72569;SDS011;60594;50.204;8.844;2022-07-23T00:17:32;8.88;;;4.30;;
72569;SDS011;60594;50.204;8.844;2022-07-23T00:19:59;8.23;;;4.32;;
72569;SDS011;60594;50.204;8.844;2022-07-23T00:22:26;7.97;;;4.47;;
72569;SDS011;60594;50.204;8.844;2022-07-23T00:24:53;9.45;;;4.57;;
72569;SDS011;60594;50.204;8.844;2022-07-23T00:27:20;9.68;;;5.50;;
72569;SDS011;60594;50.204;8.844;2022-07-23T00:29:47;8.32;;;5.15;;
72569;SDS011;60594;50.204;8.844;2022-07-23T00:32:13;7.03;;;4.00;;
72569;SDS011;60594;50.204;8.844;2022-07-23T00:34:40;9.00;;;4.18;;
72569;SDS011;60594;50.204;8.844;2022-07-23T00:37:06;6.93;;;4.22;;
72569;SDS011;60594;50.204;8.844;2022-07-23T00:39:33;9.77;;;4.22;;
72569;SDS011;60594;50.204;8.844;2022-07-23T00:42:00;9.68;;;4.40;;
72569;SDS011;60594;50.204;8.844;2022-07-23T00:44:29;6.75;;;4.32;;
72569;SDS011;60594;50.204;8.844;2022-07-23T00:46:56;8.55;;;4.28;;
72569;SDS011;60594;50.204;8.844;2022-07-23T00:49:26;7.93;;;4.88;;
72569;SDS011;60594;50.204;8.844;2022-07-23T00:51:55;7.80;;;4.40;;
72569;SDS011;60594;50.204;8.844;2022-07-23T00:54:22;9.07;;;4.53;;
72569;SDS011;60594;50.204;8.844;2022-07-23T00:56:51;7.63;;;4.30;;
72569;SDS011;60594;50.204;8.844;2022-07-23T00:59:18;8.30;;;4.47;;
72569;SDS011;60594;50.204;8.844;2022-07-23T01:01:47;9.65;;;4.80;;
72569;SDS011;60594;50.204;8.844;2022-07-23T01:04:15;8.52;;;4.30;;
72569;SDS011;60594;50.204;8.844;2022-07-23T01:06:43;9.23;;;4.47;;
72569;SDS011;60594;50.204;8.844;2022-07-23T01:09:11;8.00;;;4.25;;
72569;SDS011;60594;50.204;8.844;2022-07-23T01:11:38;9.27;;;5.72;;
72569;SDS011;60594;50.204;8.844;2022-07-23T01:14:13;8.02;;;4.55;;
72569;SDS011;60594;50.204;8.844;2022-07-23T01:16:42;8.23;;;4.40;;
72569;SDS011;60594;50.204;8.844;2022-07-23T01:19:10;8.02;;;4.70;;
72569;SDS011;60594;50.204;8.844;2022-07-23T01:21:42;7.47;;;5.57;;
72569;SDS011;60594;50.204;8.844;2022-07-23T01:24:11;9.57;;;5.28;;
72569;SDS011;60594;50.204;8.844;2022-07-23T01:26:44;9.10;;;5.20;;
72569;SDS011;60594;50.204;8.844;2022-07-23T01:29:12;10.52;;;5.75;;
72569;SDS011;60594;50.204;8.844;2022-07-23T01:31:39;11.05;;;5.68;;
72569;SDS011;60594;50.204;8.844;2022-07-23T01:34:07;9.98;;;5.40;;
72569;SDS011;60594;50.204;8.844;2022-07-23T01:36:34;8.57;;;4.78;;
72569;SDS011;60594;50.204;8.844;2022-07-23T01:39:01;8.45;;;5.63;;
72569;SDS011;60594;50.204;8.844;2022-07-23T01:41:29;10.18;;;5.88;;
72569;SDS011;60594;50.204;8.844;2022-07-23T01:43:56;11.55;;;5.30;;
72569;SDS011;60594;50.204;8.844;2022-07-23T01:46:23;10.30;;;6.30;;
72569;SDS011;60594;50.204;8.844;2022-07-23T01:48:50;9.43;;;5.60;;
72569;SDS011;60594;50.204;8.844;2022-07-23T01:51:44;10.07;;;5.65;;
72569;SDS011;60594;50.204;8.844;2022-07-23T01:54:28;12.38;;;6.07;;
72569;SDS011;60594;50.204;8.844;2022-07-23T01:56:58;11.30;;;6.28;;
72569;SDS011;60594;50.204;8.844;2022-07-23T01:59:25;11.70;;;6.25;;
72569;SDS011;60594;50.204;8.844;2022-07-23T02:01:52;11.70;;;6.35;;
72569;SDS011;60594;50.204;8.844;2022-07-23T02:04:22;10.20;;;5.60;;
72569;SDS011;60594;50.204;8.844;2022-07-23T02:06:51;10.30;;;5.85;;
72569;SDS011;60594;50.204;8.844;2022-07-23T02:11:46;9.95;;;5.53;;
72569;SDS011;60594;50.204;8.844;2022-07-23T02:14:13;10.95;;;5.20;;
72569;SDS011;60594;50.204;8.844;2022-07-23T02:16:40;10.68;;;5.57;;
72569;SDS011;60594;50.204;8.844;2022-07-23T02:19:06;11.23;;;6.10;;
72569;SDS011;60594;50.204;8.844;2022-07-23T02:21:33;11.73;;;6.72;;
72569;SDS011;60594;50.204;8.844;2022-07-23T02:24:00;11.27;;;6.35;;
72569;SDS011;60594;50.204;8.844;2022-07-23T02:26:26;9.93;;;5.40;;
72569;SDS011;60594;50.204;8.844;2022-07-23T02:28:54;10.20;;;5.63;;
72569;SDS011;60594;50.204;8.844;2022-07-23T02:31:21;12.18;;;6.47;;
72569;SDS011;60594;50.204;8.844;2022-07-23T02:33:48;12.57;;;6.20;;
72569;SDS011;60594;50.204;8.844;2022-07-23T02:36:16;10.95;;;5.47;;
72569;SDS011;60594;50.204;8.844;2022-07-23T02:38:43;11.10;;;5.80;;
72569;SDS011;60594;50.204;8.844;2022-07-23T02:41:10;10.15;;;6.18;;
72569;SDS011;60594;50.204;8.844;2022-07-23T02:43:37;9.02;;;5.65;;
72569;SDS011;60594;50.204;8.844;2022-07-23T02:46:04;11.02;;;5.97;;
72569;SDS011;60594;50.204;8.844;2022-07-23T02:48:30;10.48;;;6.00;;
72569;SDS011;60594;50.204;8.844;2022-07-23T02:50:59;10.45;;;5.93;;
72569;SDS011;60594;50.204;8.844;2022-07-23T02:53:31;10.48;;;5.75;;
72569;SDS011;60594;50.204;8.844;2022-07-23T02:55:58;10.43;;;5.47;;
72569;SDS011;60594;50.204;8.844;2022-07-23T02:58:24;10.13;;;5.40;;
72569;SDS011;60594;50.204;8.844;2022-07-23T03:00:52;10.38;;;5.80;;
72569;SDS011;60594;50.204;8.844;2022-07-23T03:03:19;10.52;;;6.20;;
72569;SDS011;60594;50.204;8.844;2022-07-23T03:05:46;9.98;;;5.85;;
72569;SDS011;60594;50.204;8.844;2022-07-23T03:08:14;10.40;;;5.57;;
72569;SDS011;60594;50.204;8.844;2022-07-23T03:10:43;9.30;;;5.30;;
72569;SDS011;60594;50.204;8.844;2022-07-23T03:13:09;11.25;;;6.47;;
72569;SDS011;60594;50.204;8.844;2022-07-23T03:15:36;10.10;;;5.60;;
72569;SDS011;60594;50.204;8.844;2022-07-23T03:18:03;9.93;;;5.63;;
72569;SDS011;60594;50.204;8.844;2022-07-23T03:20:30;10.68;;;5.78;;
72569;SDS011;60594;50.204;8.844;2022-07-23T03:22:56;10.18;;;5.65;;
72569;SDS011;60594;50.204;8.844;2022-07-23T03:25:27;10.73;;;5.90;;
72569;SDS011;60594;50.204;8.844;2022-07-23T03:27:53;10.68;;;6.05;;
72569;SDS011;60594;50.204;8.844;2022-07-23T03:30:20;13.40;;;6.78;;
72569;SDS011;60594;50.204;8.844;2022-07-23T03:32:48;12.98;;;6.85;;
72569;SDS011;60594;50.204;8.844;2022-07-23T03:35:15;10.52;;;5.90;;
72569;SDS011;60594;50.204;8.844;2022-07-23T03:37:50;11.48;;;6.00;;
72569;SDS011;60594;50.204;8.844;2022-07-23T03:40:16;11.65;;;6.35;;
72569;SDS011;60594;50.204;8.844;2022-07-23T03:42:44;12.60;;;6.75;;
72569;SDS011;60594;50.204;8.844;2022-07-23T03:45:12;12.13;;;7.07;;
72569;SDS011;60594;50.204;8.844;2022-07-23T03:47:39;11.82;;;6.15;;
72569;SDS011;60594;50.204;8.844;2022-07-23T03:50:09;12.98;;;7.03;;
72569;SDS011;60594;50.204;8.844;2022-07-23T03:52:36;12.80;;;6.75;;
72569;SDS011;60594;50.204;8.844;2022-07-23T03:55:03;10.98;;;6.75;;
72569;SDS011;60594;50.204;8.844;2022-07-23T03:57:30;12.25;;;6.28;;
72569;SDS011;60594;50.204;8.844;2022-07-23T03:59:57;13.60;;;6.80;;
72569;SDS011;60594;50.204;8.844;2022-07-23T04:02:24;11.88;;;5.97;;
72569;SDS011;60594;50.204;8.844;2022-07-23T04:04:51;10.63;;;6.07;;
72569;SDS011;60594;50.204;8.844;2022-07-23T04:07:18;11.65;;;6.63;;
72569;SDS011;60594;50.204;8.844;2022-07-23T04:09:45;12.20;;;6.10;;
72569;SDS011;60594;50.204;8.844;2022-07-23T04:12:11;13.07;;;7.25;;
72569;SDS011;60594;50.204;8.844;2022-07-23T04:14:38;11.38;;;6.35;;
72569;SDS011;60594;50.204;8.844;2022-07-23T04:17:04;12.43;;;6.68;;
72569;SDS011;60594;50.204;8.844;2022-07-23T04:19:31;13.05;;;7.13;;
72569;SDS011;60594;50.204;8.844;2022-07-23T04:22:05;13.25;;;6.78;;
72569;SDS011;60594;50.204;8.844;2022-07-23T04:24:34;14.23;;;6.93;;
72569;SDS011;60594;50.204;8.844;2022-07-23T04:27:01;12.18;;;7.35;;
72569;SDS011;60594;50.204;8.844;2022-07-23T04:29:28;11.85;;;7.13;;
72569;SDS011;60594;50.204;8.844;2022-07-23T04:31:55;11.90;;;7.22;;
72569;SDS011;60594;50.204;8.844;2022-07-23T04:34:22;12.18;;;6.85;;
72569;SDS011;60594;50.204;8.844;2022-07-23T04:36:48;14.23;;;7.60;;
72569;SDS011;60594;50.204;8.844;2022-07-23T04:39:15;13.13;;;7.22;;
72569;SDS011;60594;50.204;8.844;2022-07-23T04:41:41;14.57;;;7.72;;
72569;SDS011;60594;50.204;8.844;2022-07-23T04:44:08;12.70;;;7.68;;
72569;SDS011;60594;50.204;8.844;2022-07-23T04:46:35;12.55;;;6.82;;
72569;SDS011;60594;50.204;8.844;2022-07-23T04:49:02;12.30;;;6.97;;
72569;SDS011;60594;50.204;8.844;2022-07-23T04:51:28;11.77;;;6.80;;
72569;SDS011;60594;50.204;8.844;2022-07-23T04:53:55;13.77;;;7.93;;
72569;SDS011;60594;50.204;8.844;2022-07-23T04:56:21;13.77;;;7.20;;
72569;SDS011;60594;50.204;8.844;2022-07-23T04:58:48;12.60;;;7.47;;
72569;SDS011;60594;50.204;8.844;2022-07-23T05:01:14;14.02;;;7.13;;
72569;SDS011;60594;50.204;8.844;2022-07-23T05:03:41;13.02;;;7.35;;
72569;SDS011;60594;50.204;8.844;2022-07-23T05:06:07;13.52;;;6.72;;
72569;SDS011;60594;50.204;8.844;2022-07-23T05:08:34;13.00;;;6.82;;
72569;SDS011;60594;50.204;8.844;2022-07-23T05:11:00;13.18;;;7.13;;
72569;SDS011;60594;50.204;8.844;2022-07-23T05:13:28;13.43;;;6.82;;
72569;SDS011;60594;50.204;8.844;2022-07-23T05:15:55;11.43;;;6.63;;
72569;SDS011;60594;50.204;8.844;2022-07-23T05:18:21;12.70;;;7.88;;
72569;SDS011;60594;50.204;8.844;2022-07-23T05:20:48;12.75;;;7.60;;
72569;SDS011;60594;50.204;8.844;2022-07-23T05:23:18;13.30;;;6.68;;
72569;SDS011;60594;50.204;8.844;2022-07-23T05:25:45;11.73;;;6.72;;
72569;SDS011;60594;50.204;8.844;2022-07-23T05:28:12;12.52;;;7.25;;
72569;SDS011;60594;50.204;8.844;2022-07-23T05:30:39;12.25;;;6.70;;
72569;SDS011;60594;50.204;8.844;2022-07-23T05:33:08;13.50;;;7.32;;
72569;SDS011;60594;50.204;8.844;2022-07-23T05:35:35;14.82;;;6.60;;
72569;SDS011;60594;50.204;8.844;2022-07-23T05:38:18;12.95;;;6.65;;
72569;SDS011;60594;50.204;8.844;2022-07-23T05:40:45;12.05;;;6.90;;
72569;SDS011;60594;50.204;8.844;2022-07-23T05:43:12;11.48;;;6.22;;
72569;SDS011;60594;50.204;8.844;2022-07-23T05:45:39;11.80;;;6.72;;
72569;SDS011;60594;50.204;8.844;2022-07-23T05:48:05;11.13;;;6.65;;
72569;SDS011;60594;50.204;8.844;2022-07-23T05:50:37;11.70;;;6.00;;
72569;SDS011;60594;50.204;8.844;2022-07-23T05:53:20;13.23;;;6.53;;
72569;SDS011;60594;50.204;8.844;2022-07-23T05:56:09;11.55;;;6.63;;
72569;SDS011;60594;50.204;8.844;2022-07-23T05:58:36;9.93;;;6.03;;
72569;SDS011;60594;50.204;8.844;2022-07-23T06:01:03;12.77;;;6.75;;
72569;SDS011;60594;50.204;8.844;2022-07-23T06:03:36;12.07;;;6.88;;
72569;SDS011;60594;50.204;8.844;2022-07-23T06:06:04;12.90;;;6.45;;
72569;SDS011;60594;50.204;8.844;2022-07-23T06:08:31;11.95;;;6.68;;
72569;SDS011;60594;50.204;8.844;2022-07-23T06:10:57;12.48;;;6.93;;
72569;SDS011;60594;50.204;8.844;2022-07-23T06:13:23;10.98;;;6.22;;
72569;SDS011;60594;50.204;8.844;2022-07-23T06:15:50;10.00;;;5.57;;
72569;SDS011;60594;50.204;8.844;2022-07-23T06:18:16;11.80;;;6.63;;
72569;SDS011;60594;50.204;8.844;2022-07-23T06:20:43;10.60;;;5.75;;
72569;SDS011;60594;50.204;8.844;2022-07-23T06:23:10;9.15;;;5.43;;
72569;SDS011;60594;50.204;8.844;2022-07-23T06:25:38;9.70;;;5.43;;
72569;SDS011;60594;50.204;8.844;2022-07-23T06:28:05;11.02;;;6.25;;
72569;SDS011;60594;50.204;8.844;2022-07-23T06:30:31;10.38;;;5.53;;
72569;SDS011;60594;50.204;8.844;2022-07-23T06:32:57;11.10;;;5.65;;
72569;SDS011;60594;50.204;8.844;2022-07-23T06:35:24;9.13;;;5.40;;
72569;SDS011;60594;50.204;8.844;2022-07-23T06:37:50;10.23;;;5.50;;
72569;SDS011;60594;50.204;8.844;2022-07-23T06:40:17;9.77;;;5.15;;
72569;SDS011;60594;50.204;8.844;2022-07-23T06:42:44;10.40;;;5.43;;
72569;SDS011;60594;50.204;8.844;2022-07-23T06:45:16;9.50;;;5.20;;
72569;SDS011;60594;50.204;8.844;2022-07-23T06:47:43;9.63;;;5.53;;
72569;SDS011;60594;50.204;8.844;2022-07-23T06:50:09;9.77;;;5.28;;
72569;SDS011;60594;50.204;8.844;2022-07-23T06:52:36;8.77;;;5.30;;
72569;SDS011;60594;50.204;8.844;2022-07-23T06:55:04;10.05;;;5.72;;
72569;SDS011;60594;50.204;8.844;2022-07-23T06:57:31;8.55;;;5.38;;
72569;SDS011;60594;50.204;8.844;2022-07-23T06:59:58;9.52;;;5.60;;
72569;SDS011;60594;50.204;8.844;2022-07-23T07:02:25;9.35;;;5.53;;
72569;SDS011;60594;50.204;8.844;2022-07-23T07:04:51;10.55;;;5.63;;
72569;SDS011;60594;50.204;8.844;2022-07-23T07:07:19;8.80;;;5.28;;
72569;SDS011;60594;50.204;8.844;2022-07-23T07:09:45;10.82;;;5.82;;
72569;SDS011;60594;50.204;8.844;2022-07-23T07:12:11;9.05;;;5.00;;
72569;SDS011;60594;50.204;8.844;2022-07-23T07:14:38;8.93;;;5.00;;
72569;SDS011;60594;50.204;8.844;2022-07-23T07:17:04;9.55;;;5.90;;
72569;SDS011;60594;50.204;8.844;2022-07-23T07:19:30;10.23;;;5.32;;
72569;SDS011;60594;50.204;8.844;2022-07-23T07:21:57;9.07;;;5.05;;
72569;SDS011;60594;50.204;8.844;2022-07-23T07:24:23;9.88;;;5.65;;
72569;SDS011;60594;50.204;8.844;2022-07-23T07:26:49;10.40;;;5.70;;
72569;SDS011;60594;50.204;8.844;2022-07-23T07:29:16;8.63;;;5.20;;
72569;SDS011;60594;50.204;8.844;2022-07-23T07:31:42;11.13;;;5.50;;
72569;SDS011;60594;50.204;8.844;2022-07-23T07:34:08;8.75;;;5.30;;
72569;SDS011;60594;50.204;8.844;2022-07-23T07:36:35;8.23;;;4.53;;
72569;SDS011;60594;50.204;8.844;2022-07-23T07:39:03;8.60;;;5.30;;
72569;SDS011;60594;50.204;8.844;2022-07-23T07:41:31;10.80;;;5.70;;
72569;SDS011;60594;50.204;8.844;2022-07-23T07:43:57;10.10;;;5.25;;
72569;SDS011;60594;50.204;8.844;2022-07-23T07:46:23;11.73;;;5.93;;
72569;SDS011;60594;50.204;8.844;2022-07-23T07:48:50;8.82;;;5.15;;
72569;SDS011;60594;50.204;8.844;2022-07-23T07:51:16;12.15;;;5.38;;
72569;SDS011;60594;50.204;8.844;2022-07-23T07:53:42;11.25;;;5.28;;
72569;SDS011;60594;50.204;8.844;2022-07-23T07:56:09;9.93;;;5.43;;
72569;SDS011;60594;50.204;8.844;2022-07-23T07:58:35;9.60;;;5.47;;
72569;SDS011;60594;50.204;8.844;2022-07-23T08:01:02;8.50;;;5.07;;
72569;SDS011;60594;50.204;8.844;2022-07-23T08:03:28;9.75;;;4.93;;
72569;SDS011;60594;50.204;8.844;2022-07-23T08:05:55;9.48;;;5.38;;
72569;SDS011;60594;50.204;8.844;2022-07-23T08:08:21;9.32;;;5.63;;
72569;SDS011;60594;50.204;8.844;2022-07-23T08:10:48;7.18;;;4.25;;
72569;SDS011;60594;50.204;8.844;2022-07-23T08:13:15;8.82;;;4.85;;
72569;SDS011;60594;50.204;8.844;2022-07-23T08:15:42;8.88;;;5.28;;
72569;SDS011;60594;50.204;8.844;2022-07-23T08:18:09;8.80;;;5.32;;
72569;SDS011;60594;50.204;8.844;2022-07-23T08:20:36;10.18;;;6.15;;
72569;SDS011;60594;50.204;8.844;2022-07-23T08:23:03;11.18;;;5.75;;
72569;SDS011;60594;50.204;8.844;2022-07-23T08:25:31;13.13;;;5.28;;
72569;SDS011;60594;50.204;8.844;2022-07-23T08:28:06;8.80;;;5.43;;
72569;SDS011;60594;50.204;8.844;2022-07-23T08:30:34;9.55;;;5.25;;
72569;SDS011;60594;50.204;8.844;2022-07-23T08:33:03;7.78;;;4.70;;
72569;SDS011;60594;50.204;8.844;2022-07-23T08:35:43;8.75;;;5.07;;
72569;SDS011;60594;50.204;8.844;2022-07-23T08:38:13;8.05;;;4.78;;
72569;SDS011;60594;50.204;8.844;2022-07-23T08:40:42;7.90;;;4.95;;
72569;SDS011;60594;50.204;8.844;2022-07-23T08:43:14;8.23;;;4.90;;
72569;SDS011;60594;50.204;8.844;2022-07-23T08:45:44;8.43;;;5.32;;
72569;SDS011;60594;50.204;8.844;2022-07-23T08:48:13;7.43;;;4.68;;
72569;SDS011;60594;50.204;8.844;2022-07-23T08:50:45;8.90;;;5.10;;
72569;SDS011;60594;50.204;8.844;2022-07-23T08:53:13;9.40;;;5.00;;
72569;SDS011;60594;50.204;8.844;2022-07-23T08:55:43;9.43;;;5.45;;
72569;SDS011;60594;50.204;8.844;2022-07-23T08:58:14;10.73;;;5.57;;
72569;SDS011;60594;50.204;8.844;2022-07-23T09:00:41;8.45;;;4.65;;
72569;SDS011;60594;50.204;8.844;2022-07-23T09:03:11;10.65;;;5.00;;
72569;SDS011;60594;50.204;8.844;2022-07-23T09:05:41;7.00;;;4.40;;
72569;SDS011;60594;50.204;8.844;2022-07-23T09:13:25;8.02;;;4.72;;
72569;SDS011;60594;50.204;8.844;2022-07-23T09:15:53;7.10;;;4.75;;
72569;SDS011;60594;50.204;8.844;2022-07-23T09:18:27;8.35;;;5.32;;
72569;SDS011;60594;50.204;8.844;2022-07-23T09:26:18;7.47;;;4.82;;
72569;SDS011;60594;50.204;8.844;2022-07-23T09:29:00;8.90;;;4.45;;
72569;SDS011;60594;50.204;8.844;2022-07-23T09:31:35;7.00;;;4.28;;
72569;SDS011;60594;50.204;8.844;2022-07-23T09:34:30;6.13;;;4.60;;
72569;SDS011;60594;50.204;8.844;2022-07-23T09:37:12;6.03;;;4.38;;
72569;SDS011;60594;50.204;8.844;2022-07-23T09:39:44;7.07;;;5.60;;
72569;SDS011;60594;50.204;8.844;2022-07-23T09:42:24;7.63;;;4.25;;
72569;SDS011;60594;50.204;8.844;2022-07-23T09:44:53;7.13;;;4.78;;
72569;SDS011;60594;50.204;8.844;2022-07-23T09:47:21;6.18;;;4.10;;
72569;SDS011;60594;50.204;8.844;2022-07-23T09:50:04;7.72;;;4.68;;
72569;SDS011;60594;50.204;8.844;2022-07-23T09:52:42;7.55;;;4.25;;
72569;SDS011;60594;50.204;8.844;2022-07-23T09:55:10;5.93;;;3.70;;
72569;SDS011;60594;50.204;8.844;2022-07-23T09:57:37;7.07;;;4.43;;
72569;SDS011;60594;50.204;8.844;2022-07-23T10:00:06;6.85;;;3.90;;
72569;SDS011;60594;50.204;8.844;2022-07-23T10:02:35;6.95;;;4.82;;
72569;SDS011;60594;50.204;8.844;2022-07-23T10:05:32;7.47;;;4.13;;
72569;SDS011;60594;50.204;8.844;2022-07-23T10:08:06;5.93;;;3.72;;
72569;SDS011;60594;50.204;8.844;2022-07-23T10:10:55;7.45;;;4.43;;
72569;SDS011;60594;50.204;8.844;2022-07-23T10:13:22;8.38;;;3.90;;
72569;SDS011;60594;50.204;8.844;2022-07-23T10:15:50;7.05;;;4.25;;
72569;SDS011;60594;50.204;8.844;2022-07-23T10:18:17;7.22;;;4.50;;
72569;SDS011;60594;50.204;8.844;2022-07-23T10:20:43;6.90;;;3.83;;
72569;SDS011;60594;50.204;8.844;2022-07-23T10:23:15;6.03;;;3.85;;
72569;SDS011;60594;50.204;8.844;2022-07-23T10:31:31;6.93;;;4.82;;
72569;SDS011;60594;50.204;8.844;2022-07-23T10:39:32;7.32;;;4.20;;
72569;SDS011;60594;50.204;8.844;2022-07-23T10:42:13;6.57;;;3.78;;
72569;SDS011;60594;50.204;8.844;2022-07-23T10:44:44;5.63;;;3.80;;
72569;SDS011;60594;50.204;8.844;2022-07-23T10:47:25;5.32;;;3.65;;
72569;SDS011;60594;50.204;8.844;2022-07-23T10:58:01;5.50;;;3.70;;
72569;SDS011;60594;50.204;8.844;2022-07-23T11:00:30;6.30;;;4.00;;
72569;SDS011;60594;50.204;8.844;2022-07-23T11:03:01;5.70;;;4.88;;
72569;SDS011;60594;50.204;8.844;2022-07-23T11:05:40;5.55;;;3.65;;
72569;SDS011;60594;50.204;8.844;2022-07-23T11:08:12;7.63;;;4.13;;
72569;SDS011;60594;50.204;8.844;2022-07-23T11:10:45;7.45;;;3.75;;
72569;SDS011;60594;50.204;8.844;2022-07-23T11:31:58;6.22;;;3.60;;
72569;SDS011;60594;50.204;8.844;2022-07-23T11:37:07;7.05;;;4.03;;
72569;SDS011;60594;50.204;8.844;2022-07-23T11:39:35;5.32;;;3.58;;
72569;SDS011;60594;50.204;8.844;2022-07-23T11:42:02;5.82;;;3.95;;
72569;SDS011;60594;50.204;8.844;2022-07-23T11:44:37;6.22;;;3.72;;
72569;SDS011;60594;50.204;8.844;2022-07-23T11:47:05;5.22;;;3.53;;
72569;SDS011;60594;50.204;8.844;2022-07-23T11:49:33;5.57;;;3.55;;
72569;SDS011;60594;50.204;8.844;2022-07-23T11:52:04;6.50;;;3.80;;
72569;SDS011;60594;50.204;8.844;2022-07-23T11:54:33;8.75;;;3.88;;
72569;SDS011;60594;50.204;8.844;2022-07-23T11:57:02;5.88;;;3.67;;
72569;SDS011;60594;50.204;8.844;2022-07-23T11:59:31;6.55;;;3.80;;
72569;SDS011;60594;50.204;8.844;2022-07-23T12:01:59;5.18;;;3.80;;
72569;SDS011;60594;50.204;8.844;2022-07-23T12:04:40;7.25;;;3.90;;
72569;SDS011;60594;50.204;8.844;2022-07-23T12:09:59;7.18;;;3.78;;
72569;SDS011;60594;50.204;8.844;2022-07-23T12:12:35;5.53;;;3.60;;
72569;SDS011;60594;50.204;8.844;2022-07-23T12:15:05;7.35;;;3.90;;
72569;SDS011;60594;50.204;8.844;2022-07-23T12:17:34;6.43;;;3.80;;
72569;SDS011;60594;50.204;8.844;2022-07-23T12:20:06;6.97;;;4.28;;
72569;SDS011;60594;50.204;8.844;2022-07-23T12:22:42;7.35;;;4.15;;
72569;SDS011;60594;50.204;8.844;2022-07-23T12:25:12;6.07;;;3.70;;
72569;SDS011;60594;50.204;8.844;2022-07-23T12:27:43;6.78;;;4.13;;
72569;SDS011;60594;50.204;8.844;2022-07-23T12:30:26;7.35;;;3.78;;
72569;SDS011;60594;50.204;8.844;2022-07-23T12:32:56;6.15;;;3.90;;
72569;SDS011;60594;50.204;8.844;2022-07-23T12:35:29;8.23;;;4.30;;
72569;SDS011;60594;50.204;8.844;2022-07-23T12:38:05;5.90;;;3.92;;
72569;SDS011;60594;50.204;8.844;2022-07-23T12:40:34;6.40;;;3.75;;
72569;SDS011;60594;50.204;8.844;2022-07-23T12:43:03;7.72;;;4.03;;
72569;SDS011;60594;50.204;8.844;2022-07-23T12:48:31;7.05;;;4.78;;
72569;SDS011;60594;50.204;8.844;2022-07-23T12:53:45;6.78;;;3.92;;
72569;SDS011;60594;50.204;8.844;2022-07-23T12:58:52;6.00;;;4.45;;
72569;SDS011;60594;50.204;8.844;2022-07-23T13:06:35;6.03;;;4.30;;
72569;SDS011;60594;50.204;8.844;2022-07-23T13:09:06;5.85;;;3.92;;
72569;SDS011;60594;50.204;8.844;2022-07-23T13:11:35;7.03;;;4.13;;
72569;SDS011;60594;50.204;8.844;2022-07-23T13:14:02;6.35;;;4.47;;
72569;SDS011;60594;50.204;8.844;2022-07-23T13:16:29;6.13;;;4.43;;
72569;SDS011;60594;50.204;8.844;2022-07-23T13:18:57;6.30;;;4.70;;
72569;SDS011;60594;50.204;8.844;2022-07-23T13:21:24;6.63;;;4.40;;
72569;SDS011;60594;50.204;8.844;2022-07-23T13:23:51;7.28;;;4.90;;
72569;SDS011;60594;50.204;8.844;2022-07-23T13:26:18;6.90;;;4.63;;
72569;SDS011;60594;50.204;8.844;2022-07-23T13:28:44;6.40;;;4.25;;
72569;SDS011;60594;50.204;8.844;2022-07-23T13:31:11;6.43;;;4.50;;
72569;SDS011;60594;50.204;8.844;2022-07-23T13:33:39;7.10;;;4.47;;
72569;SDS011;60594;50.204;8.844;2022-07-23T13:36:06;7.22;;;4.60;;
72569;SDS011;60594;50.204;8.844;2022-07-23T13:38:32;6.85;;;4.75;;
72569;SDS011;60594;50.204;8.844;2022-07-23T13:43:26;7.22;;;4.70;;
72569;SDS011;60594;50.204;8.844;2022-07-23T13:45:52;8.23;;;4.47;;
72569;SDS011;60594;50.204;8.844;2022-07-23T13:48:19;5.97;;;4.38;;
72569;SDS011;60594;50.204;8.844;2022-07-23T13:50:46;7.57;;;4.35;;
72569;SDS011;60594;50.204;8.844;2022-07-23T13:53:15;7.03;;;4.97;;
72569;SDS011;60594;50.204;8.844;2022-07-23T13:55:43;6.93;;;4.70;;
72569;SDS011;60594;50.204;8.844;2022-07-23T13:58:10;6.75;;;4.85;;
72569;SDS011;60594;50.204;8.844;2022-07-23T14:00:38;6.93;;;4.47;;
72569;SDS011;60594;50.204;8.844;2022-07-23T14:03:06;7.25;;;4.45;;
72569;SDS011;60594;50.204;8.844;2022-07-23T14:05:33;10.35;;;6.90;;
72569;SDS011;60594;50.204;8.844;2022-07-23T14:08:00;6.40;;;4.65;;
72569;SDS011;60594;50.204;8.844;2022-07-23T14:10:28;6.97;;;4.63;;
72569;SDS011;60594;50.204;8.844;2022-07-23T14:12:54;7.13;;;4.85;;
72569;SDS011;60594;50.204;8.844;2022-07-23T14:15:24;6.93;;;4.65;;
72569;SDS011;60594;50.204;8.844;2022-07-23T14:17:53;8.18;;;4.60;;
72569;SDS011;60594;50.204;8.844;2022-07-23T14:20:20;8.40;;;5.25;;
72569;SDS011;60594;50.204;8.844;2022-07-23T14:22:47;6.78;;;4.65;;
72569;SDS011;60594;50.204;8.844;2022-07-23T14:25:15;6.95;;;4.78;;
72569;SDS011;60594;50.204;8.844;2022-07-23T14:27:42;7.15;;;4.85;;
72569;SDS011;60594;50.204;8.844;2022-07-23T14:30:09;7.07;;;4.65;;
72569;SDS011;60594;50.204;8.844;2022-07-23T14:32:36;7.28;;;5.20;;
72569;SDS011;60594;50.204;8.844;2022-07-23T14:35:03;6.70;;;4.80;;
72569;SDS011;60594;50.204;8.844;2022-07-23T14:37:31;5.93;;;4.10;;
72569;SDS011;60594;50.204;8.844;2022-07-23T14:39:57;6.43;;;4.60;;
72569;SDS011;60594;50.204;8.844;2022-07-23T14:42:24;6.72;;;4.78;;
72569;SDS011;60594;50.204;8.844;2022-07-23T14:44:50;6.30;;;4.88;;
72569;SDS011;60594;50.204;8.844;2022-07-23T14:47:16;8.10;;;5.30;;
72569;SDS011;60594;50.204;8.844;2022-07-23T14:49:43;7.28;;;4.90;;
72569;SDS011;60594;50.204;8.844;2022-07-23T14:52:09;6.78;;;5.38;;
72569;SDS011;60594;50.204;8.844;2022-07-23T14:54:36;7.13;;;5.10;;
72569;SDS011;60594;50.204;8.844;2022-07-23T14:57:02;6.90;;;5.18;;
72569;SDS011;60594;50.204;8.844;2022-07-23T14:59:29;8.60;;;5.28;;
72569;SDS011;60594;50.204;8.844;2022-07-23T15:01:57;7.03;;;4.78;;
72569;SDS011;60594;50.204;8.844;2022-07-23T15:04:24;6.30;;;4.32;;
72569;SDS011;60594;50.204;8.844;2022-07-23T15:06:51;6.60;;;4.68;;
72569;SDS011;60594;50.204;8.844;2022-07-23T15:09:18;6.63;;;4.88;;
72569;SDS011;60594;50.204;8.844;2022-07-23T15:11:44;6.85;;;4.68;;
72569;SDS011;60594;50.204;8.844;2022-07-23T15:14:10;6.78;;;5.15;;
72569;SDS011;60594;50.204;8.844;2022-07-23T15:16:37;7.93;;;4.63;;
72569;SDS011;60594;50.204;8.844;2022-07-23T15:19:03;6.40;;;4.43;;
72569;SDS011;60594;50.204;8.844;2022-07-23T15:21:30;6.57;;;4.55;;
72569;SDS011;60594;50.204;8.844;2022-07-23T15:23:57;6.22;;;4.22;;
72569;SDS011;60594;50.204;8.844;2022-07-23T15:26:27;5.68;;;4.05;;
72569;SDS011;60594;50.204;8.844;2022-07-23T15:28:54;6.35;;;4.20;;
72569;SDS011;60594;50.204;8.844;2022-07-23T15:31:21;6.28;;;4.70;;
72569;SDS011;60594;50.204;8.844;2022-07-23T15:33:48;7.32;;;4.55;;
72569;SDS011;60594;50.204;8.844;2022-07-23T15:36:16;7.07;;;4.40;;
72569;SDS011;60594;50.204;8.844;2022-07-23T15:38:45;7.25;;;4.50;;
72569;SDS011;60594;50.204;8.844;2022-07-23T15:41:12;5.97;;;4.07;;
72569;SDS011;60594;50.204;8.844;2022-07-23T15:43:39;6.00;;;4.22;;
72569;SDS011;60594;50.204;8.844;2022-07-23T15:46:05;5.72;;;4.28;;
72569;SDS011;60594;50.204;8.844;2022-07-23T15:48:33;6.72;;;4.20;;
72569;SDS011;60594;50.204;8.844;2022-07-23T15:51:01;6.38;;;3.88;;
72569;SDS011;60594;50.204;8.844;2022-07-23T15:53:28;6.28;;;3.70;;
72569;SDS011;60594;50.204;8.844;2022-07-23T15:55:54;6.50;;;4.38;;
72569;SDS011;60594;50.204;8.844;2022-07-23T15:58:21;6.40;;;3.90;;
72569;SDS011;60594;50.204;8.844;2022-07-23T16:00:47;6.63;;;4.05;;
72569;SDS011;60594;50.204;8.844;2022-07-23T16:03:14;5.82;;;3.72;;